Time;durP1;ratioP1;P1;durP2;ratioP2;P2;SDS_P1;SDS_P2;PMS_P1;PMS_P2;Temp;Humidity;BMP_temperature;BMP_pressure;BME280_temperature;BME280_humidity;BME280_pressure;Samples;Min_cycle;Max_cycle;Signal;HPM_P1;HPM_P2
2020/05/14 00:01:11;;;;;;;21.4;19.4;;;;;;;;;;;;;
2020/05/14 00:03:36;;;;;;;21.3;19.4;;;;;;;;;;;;;
2020/05/14 00:06:04;;;;;;;20.2;18.3;;;;;;;;;;;;;
2020/05/14 00:08:26;;;;;;;18.2;16.5;;;;;;;;;;;;;
2020/05/14 00:10:55;;;;;;;15.5;14.1;;;;;;;;;;;;;
2020/05/14 00:13:21;;;;;;;16;14.5;;;;;;;;;;;;;
2020/05/14 00:15:46;;;;;;;15;13.7;;;;;;;;;;;;;
2020/05/14 00:18:11;;;;;;;15.9;14.4;;;;;;;;;;;;;
2020/05/14 00:20:36;;;;;;;17.6;15.9;;;;;;;;;;;;;
2020/05/14 00:23:01;;;;;;;17.8;16.1;;;;;;;;;;;;;
2020/05/14 00:25:26;;;;;;;15.8;14.3;;;;;;;;;;;;;
2020/05/14 00:27:51;;;;;;;15.1;13.6;;;;;;;;;;;;;
2020/05/14 00:30:19;;;;;;;18.3;16.5;;;;;;;;;;;;;
2020/05/14 00:32:44;;;;;;;19.5;17.6;;;;;;;;;;;;;
2020/05/14 00:35:09;;;;;;;20.5;18.6;;;;;;;;;;;;;
2020/05/14 00:37:34;;;;;;;20.9;18.8;;;;;;;;;;;;;
2020/05/14 00:39:59;;;;;;;19.7;17.7;;;;;;;;;;;;;
2020/05/14 00:42:25;;;;;;;19.1;17.2;;;;;;;;;;;;;
2020/05/14 00:44:50;;;;;;;17.2;15.6;;;;;;;;;;;;;
2020/05/14 00:47:16;;;;;;;22.5;20.3;;;;;;;;;;;;;
2020/05/14 00:49:41;;;;;;;21.7;19.6;;;;;;;;;;;;;
2020/05/14 00:52:06;;;;;;;19.4;17.6;;;;;;;;;;;;;
2020/05/14 00:54:31;;;;;;;20.3;18.2;;;;;;;;;;;;;
2020/05/14 00:56:57;;;;;;;20;18;;;;;;;;;;;;;
2020/05/14 00:59:22;;;;;;;20.7;18.8;;;;;;;;;;;;;
2020/05/14 01:01:47;;;;;;;19.7;17.8;;;;;;;;;;;;;
2020/05/14 01:04:50;;;;;;;20.1;18.2;;;;;;;;;;;;;
2020/05/14 01:06:40;;;;;;;19;17.1;;;;;;;;;;;;;
2020/05/14 01:09:03;;;;;;;21;18.7;;;;;;;;;;;;;
2020/05/14 01:11:27;;;;;;;17.1;15.5;;;;;;;;;;;;;
2020/05/14 01:13:52;;;;;;;16.9;15.2;;;;;;;;;;;;;
2020/05/14 01:16:31;;;;;;;18.4;16.7;;;;;;;;;;;;;
2020/05/14 01:18:44;;;;;;;18.6;16.8;;;;;;;;;;;;;
2020/05/14 01:21:08;;;;;;;21.5;19.4;;;;;;;;;;;;;
2020/05/14 01:23:33;;;;;;;18.4;16.5;;;;;;;;;;;;;
2020/05/14 01:25:59;;;;;;;21.4;19.1;;;;;;;;;;;;;
2020/05/14 01:28:24;;;;;;;21.9;19.6;;;;;;;;;;;;;
2020/05/14 01:30:49;;;;;;;19.5;17.6;;;;;;;;;;;;;
2020/05/14 01:33:14;;;;;;;19.9;18;;;;;;;;;;;;;
2020/05/14 01:35:39;;;;;;;21.2;19.2;;;;;;;;;;;;;
2020/05/14 01:38:04;;;;;;;22;19.8;;;;;;;;;;;;;
2020/05/14 01:40:29;;;;;;;21;18.9;;;;;;;;;;;;;
2020/05/14 01:43:01;;;;;;;20.5;18.5;;;;;;;;;;;;;
2020/05/14 01:47:11;;;;;;;21.7;19.5;;;;;;;;;;;;;
2020/05/14 01:47:57;;;;;;;20.1;18.1;;;;;;;;;;;;;
2020/05/14 01:50:22;;;;;;;20.6;18.5;;;;;;;;;;;;;
2020/05/14 01:52:39;;;;;;;21.3;19.2;;;;;;;;;;;;;
2020/05/14 01:55:01;;;;;;;22.5;20.3;;;;;;;;;;;;;
2020/05/14 01:57:26;;;;;;;23.9;21.5;;;;;;;;;;;;;
2020/05/14 01:59:52;;;;;;;25.1;22.6;;;;;;;;;;;;;
2020/05/14 02:02:17;;;;;;;29.4;25.6;;;;;;;;;;;;;
2020/05/14 02:04:42;;;;;;;27.8;25;;;;;;;;;;;;;
2020/05/14 02:07:07;;;;;;;28.1;25.2;;;;;;;;;;;;;
2020/05/14 02:09:32;;;;;;;26.7;23.9;;;;;;;;;;;;;
2020/05/14 02:12:02;;;;;;;23.4;21.1;;;;;;;;;;;;;
2020/05/14 02:19:18;;;;;;;23.5;21.2;;;;;;;;;;;;;
2020/05/14 02:21:51;;;;;;;26.2;23.4;;;;;;;;;;;;;
2020/05/14 02:24:04;;;;;;;30.1;25.2;;;;;;;;;;;;;
2020/05/14 02:26:28;;;;;;;28.5;25.5;;;;;;;;;;;;;
2020/05/14 02:28:54;;;;;;;25.4;22.8;;;;;;;;;;;;;
2020/05/14 02:31:19;;;;;;;26.6;23.8;;;;;;;;;;;;;
2020/05/14 02:33:44;;;;;;;25.6;22.9;;;;;;;;;;;;;
2020/05/14 02:36:10;;;;;;;25.6;23;;;;;;;;;;;;;
2020/05/14 02:38:35;;;;;;;23.3;20.9;;;;;;;;;;;;;
2020/05/14 02:41:00;;;;;;;25.2;22.6;;;;;;;;;;;;;
2020/05/14 02:43:25;;;;;;;26.7;24.1;;;;;;;;;;;;;
2020/05/14 02:45:50;;;;;;;25.9;23.3;;;;;;;;;;;;;
2020/05/14 02:48:15;;;;;;;25.8;23.3;;;;;;;;;;;;;
2020/05/14 02:50:41;;;;;;;26.4;23.8;;;;;;;;;;;;;
2020/05/14 02:53:06;;;;;;;23.3;21.1;;;;;;;;;;;;;
2020/05/14 02:55:31;;;;;;;23.9;21.5;;;;;;;;;;;;;
2020/05/14 02:57:56;;;;;;;22.4;20.2;;;;;;;;;;;;;
2020/05/14 03:00:27;;;;;;;20.3;18.4;;;;;;;;;;;;;
2020/05/14 03:03:01;;;;;;;22.4;20.2;;;;;;;;;;;;;
2020/05/14 03:05:35;;;;;;;19.6;17.7;;;;;;;;;;;;;
2020/05/14 03:07:59;;;;;;;17.8;16;;;;;;;;;;;;;
2020/05/14 03:10:02;;;;;;;19.7;17.8;;;;;;;;;;;;;
2020/05/14 03:12:27;;;;;;;19.6;17.7;;;;;;;;;;;;;
2020/05/14 03:14:52;;;;;;;18.7;17;;;;;;;;;;;;;
2020/05/14 03:17:17;;;;;;;20;18;;;;;;;;;;;;;
2020/05/14 03:19:42;;;;;;;20.8;18.7;;;;;;;;;;;;;
2020/05/14 03:22:07;;;;;;;19.4;17.6;;;;;;;;;;;;;
2020/05/14 03:27:06;;;;;;;19.3;17.4;;;;;;;;;;;;;
2020/05/14 03:31:51;;;;;;;17.2;15.6;;;;;;;;;;;;;
2020/05/14 03:34:13;;;;;;;18.4;16.6;;;;;;;;;;;;;
2020/05/14 03:36:38;;;;;;;16.2;14.7;;;;;;;;;;;;;
2020/05/14 03:39:03;;;;;;;16.5;15;;;;;;;;;;;;;
2020/05/14 03:41:29;;;;;;;15.9;14.5;;;;;;;;;;;;;
2020/05/14 03:51:23;;;;;;;15.3;13.9;;;;;;;;;;;;;
2020/05/14 03:53:36;;;;;;;13.4;12.2;;;;;;;;;;;;;
2020/05/14 03:55:59;;;;;;;13.4;12.2;;;;;;;;;;;;;
2020/05/14 03:58:24;;;;;;;14.7;13.2;;;;;;;;;;;;;
2020/05/14 04:04:53;;;;;;;15.6;14.2;;;;;;;7.11;100;954.1981;;;;
2020/05/14 04:07:19;;;;;;;12.7;11.6;;;;;;;7.2;100;954.1808;;;;
2020/05/14 04:09:44;;;;;;;13.6;12.3;;;;;;;7.16;100;954.3137;;;;
2020/05/14 04:12:09;;;;;;;13.4;12.1;;;;;;;7.15;100;954.3848;;;;
2020/05/14 04:14:35;;;;;;;13.8;12.5;;;;;;;7.21;100;954.3883;;;;
2020/05/14 04:17:00;;;;;;;16.3;14.8;;;;;;;7.15;100;954.4582;;;;
2020/05/14 04:19:25;;;;;;;16.3;14.7;;;;;;;7.2;100;954.4774;;;;
2020/05/14 04:21:51;;;;;;;18.4;16.6;;;;;;;7.18;100;954.4584;;;;
2020/05/14 04:24:16;;;;;;;16.6;15;;;;;;;7.05;100;954.5313;;;;
2020/05/14 04:26:42;;;;;;;17.2;15.6;;;;;;;7.13;100;954.6808;;;;
2020/05/14 04:29:07;;;;;;;18.1;16.4;;;;;;;7.22;100;954.7405;;;;
2020/05/14 04:31:34;;;;;;;18.1;16.3;;;;;;;7.14;100;954.8171;;;;
2020/05/14 04:34:00;;;;;;;18;16.3;;;;;;;7.13;100;954.8404;;;;
2020/05/14 04:36:25;;;;;;;16.8;15.1;;;;;;;7.16;100;954.808;;;;
2020/05/14 04:38:50;;;;;;;17.2;15.6;;;;;;;7.04;100;954.8665;;;;
2020/05/14 04:41:15;;;;;;;18;16.3;;;;;;;7;100;954.8867;;;;
2020/05/14 04:43:41;;;;;;;18.6;16.9;;;;;;;7.11;100;954.9687;;;;
2020/05/14 04:46:06;;;;;;;15.7;14.3;;;;;;;7.27;100;954.9637;;;;
2020/05/14 04:48:32;;;;;;;15.4;14;;;;;;;7.35;100;955.0465;;;;
2020/05/14 04:50:57;;;;;;;15.8;14.3;;;;;;;7.22;100;955.08;;;;
2020/05/14 04:53:22;;;;;;;17.2;15.6;;;;;;;7.26;100;955.093;;;;
2020/05/14 04:55:47;;;;;;;15.5;14.1;;;;;;;7.21;100;955.139;;;;
2020/05/14 04:58:20;;;;;;;15.8;14.4;;;;;;;7.28;100;955.1722;;;;
2020/05/14 05:06:19;;;;;;;17.4;15.8;;;;;;;7.22;100;955.1545;;;;
2020/05/14 05:10:34;;;;;;;17;15.4;;;;;;;7.3;100;955.2043;;;;
2020/05/14 05:18:18;;;;;;;15.4;14;;;;;;;7.46;100;955.2852;;;;
2020/05/14 05:24:53;;;;;;;19.9;17.8;;;;;;;7.19;100;955.3376;;;;
2020/05/14 05:27:19;;;;;;;18.9;17.1;;;;;;;7.38;100;955.4258;;;;
2020/05/14 05:29:44;;;;;;;20.1;18.2;;;;;;;7.54;100;955.4485;;;;
2020/05/14 05:32:10;;;;;;;17;15.5;;;;;;;7.43;100;955.4012;;;;
2020/05/14 05:34:35;;;;;;;16.3;14.8;;;;;;;7.44;100;955.356;;;;
2020/05/14 05:37:01;;;;;;;15.6;14.1;;;;;;;7.34;100;955.313;;;;
2020/05/14 05:39:26;;;;;;;14.6;13.3;;;;;;;7.24;100;955.2974;;;;
2020/05/14 05:41:51;;;;;;;15.7;14.2;;;;;;;7.27;100;955.3585;;;;
2020/05/14 05:44:16;;;;;;;16.6;15;;;;;;;7.22;100;955.3175;;;;
2020/05/14 05:46:41;;;;;;;16.2;14.6;;;;;;;7.36;100;955.3397;;;;
2020/05/14 05:49:07;;;;;;;16.1;14.6;;;;;;;7.45;100;955.3248;;;;
2020/05/14 05:51:32;;;;;;;15.9;14.5;;;;;;;7.56;100;955.3417;;;;
2020/05/14 05:53:58;;;;;;;14.5;13.1;;;;;;;7.59;100;955.3563;;;;
2020/05/14 05:56:23;;;;;;;16.1;13.7;;;;;;;7.49;100;955.3702;;;;
2020/05/14 05:58:57;;;;;;;16.1;14.4;;;;;;;7.58;100;955.4128;;;;
2020/05/14 06:01:22;;;;;;;15.6;12;;;;;;;7.69;100;955.3791;;;;
2020/05/14 06:03:47;;;;;;;12.6;11.3;;;;;;;7.69;100;955.3993;;;;
2020/05/14 06:06:13;;;;;;;11.7;10.6;;;;;;;7.5;100;955.3873;;;;
2020/05/14 06:11:33;;;;;;;12.9;11.7;;;;;;;7.61;100;955.4403;;;;
2020/05/14 06:13:58;;;;;;;12.6;11.4;;;;;;;7.56;100;955.4354;;;;
2020/05/14 06:17:41;;;;;;;12.4;11.3;;;;;;;7.74;100;955.4619;;;;
2020/05/14 06:20:06;;;;;;;12.8;11.6;;;;;;;7.85;100;955.4872;;;;
2020/05/14 06:22:36;;;;;;;11.2;10;;;;;;;7.83;100;955.4997;;;;
2020/05/14 06:32:41;;;;;;;10.2;9.3;;;;;;;7.86;100;955.5084;;;;
2020/05/14 06:34:58;;;;;;;10.1;9.2;;;;;;;7.97;100;955.5021;;;;
2020/05/14 06:37:59;;;;;;;10.1;9.1;;;;;;;7.98;100;955.5467;;;;
2020/05/14 06:47:07;;;;;;;10.4;9.4;;;;;;;8.23;100;955.6133;;;;
2020/05/14 06:49:43;;;;;;;10.7;9.6;;;;;;;8.26;100;955.6488;;;;
2020/05/14 06:52:11;;;;;;;11.5;10.5;;;;;;;8.27;100;955.6725;;;;
2020/05/14 07:05:54;;;;;;;9.8;8.9;;;;;;;8.22;100;955.9506;;;;
2020/05/14 07:08:18;;;;;;;8;7.3;;;;;;;8.27;100;955.9241;;;;
2020/05/14 07:11:01;;;;;;;8.8;8.1;;;;;;;8.18;100;955.9603;;;;
2020/05/14 07:13:29;;;;;;;9.2;8.4;;;;;;;8.3;100;955.9735;;;;
2020/05/14 07:15:34;;;;;;;7.7;7;;;;;;;8.27;100;955.9542;;;;
2020/05/14 07:20:17;;;;;;;8.4;7.6;;;;;;;8.04;100;955.8881;;;;
2020/05/14 07:22:42;;;;;;;9.7;8.7;;;;;;;8.12;100;955.907;;;;
2020/05/14 07:25:07;;;;;;;9.5;8.4;;;;;;;8.2;100;955.8773;;;;
2020/05/14 07:27:32;;;;;;;9.3;8.3;;;;;;;8.25;100;955.9146;;;;
2020/05/14 07:29:59;;;;;;;9.6;8.8;;;;;;;8.33;100;955.9296;;;;
2020/05/14 07:32:24;;;;;;;9.7;8.8;;;;;;;8.35;100;955.986;;;;
2020/05/14 07:34:49;;;;;;;8.9;8.1;;;;;;;8.65;100;956.0349;;;;
2020/05/14 07:37:15;;;;;;;8.2;7.4;;;;;;;8.73;100;956.0314;;;;
2020/05/14 07:39:40;;;;;;;9;8.2;;;;;;;8.79;100;956.0733;;;;
2020/05/14 07:42:05;;;;;;;8.9;8;;;;;;;8.65;100;956.0511;;;;
2020/05/14 07:44:31;;;;;;;9.5;8.5;;;;;;;8.74;100;956.027;;;;
2020/05/14 07:47:12;;;;;;;9.2;8.3;;;;;;;8.72;100;956.0281;;;;
2020/05/14 07:49:21;;;;;;;8.4;7.6;;;;;;;8.82;100;955.9991;;;;
2020/05/14 07:51:48;;;;;;;8.7;7.9;;;;;;;8.96;100;956.0645;;;;
2020/05/14 07:54:13;;;;;;;9.8;8.9;;;;;;;8.8;99.00781;956.1362;;;;
2020/05/14 07:56:38;;;;;;;11.6;10.6;;;;;;;8.83;100;956.1945;;;;
2020/05/14 07:59:04;;;;;;;11.9;10.8;;;;;;;8.84;100;956.2369;;;;
2020/05/14 08:01:29;;;;;;;13.5;12.3;;;;;;;8.79;100;956.2321;;;;
2020/05/14 08:03:54;;;;;;;14.3;13.1;;;;;;;8.87;100;956.2131;;;;
2020/05/14 08:06:20;;;;;;;12.8;11.7;;;;;;;8.99;96.04688;956.1683;;;;
2020/05/14 08:08:46;;;;;;;13.9;12.6;;;;;;;9.08;97.9043;956.1733;;;;
2020/05/14 08:11:12;;;;;;;13.7;12.3;;;;;;;9.24;98.12402;956.2022;;;;
2020/05/14 08:13:37;;;;;;;15.7;14.2;;;;;;;9.34;100;956.2197;;;;
2020/05/14 08:16:03;;;;;;;13.1;11.9;;;;;;;9.16;96.72949;956.2286;;;;
2020/05/14 08:18:28;;;;;;;14.3;13;;;;;;;9.11;98.46094;956.2227;;;;
2020/05/14 08:20:55;;;;;;;12.3;11.2;;;;;;;9.44;96.5166;956.2449;;;;
2020/05/14 08:23:20;;;;;;;13.3;12;;;;;;;9.16;95.75391;956.222;;;;
2020/05/14 08:25:46;;;;;;;13.6;12.4;;;;;;;9.31;98.39258;956.1525;;;;
2020/05/14 08:28:11;;;;;;;12.3;11.1;;;;;;;9.42;95.76563;956.2148;;;;
2020/05/14 08:30:37;;;;;;;14;12.6;;;;;;;9.5;97.5752;956.2175;;;;
2020/05/14 08:33:02;;;;;;;13.4;12.1;;;;;;;9.43;97.87988;956.2059;;;;
2020/05/14 08:35:28;;;;;;;14.9;13.5;;;;;;;9.35;100;956.2636;;;;
2020/05/14 08:37:53;;;;;;;15.1;13.7;;;;;;;9.39;97.9043;956.3334;;;;
2020/05/14 08:40:19;;;;;;;14.3;12.4;;;;;;;9.44;96.99805;956.3897;;;;
2020/05/14 08:42:44;;;;;;;18.3;14.4;;;;;;;9.47;100;956.3398;;;;
2020/05/14 08:45:10;;;;;;;16.5;15;;;;;;;9.45;98.87109;956.3345;;;;
2020/05/14 08:47:35;;;;;;;14.8;13.3;;;;;;;9.57;95.20117;956.3455;;;;
2020/05/14 08:50:01;;;;;;;15.5;14.1;;;;;;;9.64;97.27441;956.4292;;;;
2020/05/14 08:54:51;;;;;;;16;14.6;;;;;;;9.71;95.00488;956.3448;;;;
2020/05/14 08:57:18;;;;;;;16;14.5;;;;;;;9.49;94.15137;956.3289;;;;
2020/05/14 08:59:43;;;;;;;16;14.5;;;;;;;9.45;95.14063;956.3378;;;;
2020/05/14 09:02:09;;;;;;;15.7;14.2;;;;;;;9.55;94.96875;956.3447;;;;
2020/05/14 09:04:34;;;;;;;16.3;14.9;;;;;;;9.59;94.10449;956.3672;;;;
2020/05/14 09:07:02;;;;;;;15.9;14.3;;;;;;;9.46;94.60547;956.3267;;;;
2020/05/14 09:09:27;;;;;;;17.3;15.7;;;;;;;9.62;97.24512;956.3628;;;;
2020/05/14 09:11:52;;;;;;;15.6;14.2;;;;;;;9.75;94.08008;956.3438;;;;
2020/05/14 09:14:17;;;;;;;16.6;15.1;;;;;;;9.74;94.90723;956.3095;;;;
2020/05/14 09:16:43;;;;;;;17.4;15.5;;;;;;;9.88;93.6748;956.2778;;;;
2020/05/14 09:19:09;;;;;;;15;13.5;;;;;;;10.07;91.21875;956.2701;;;;
2020/05/14 09:21:35;;;;;;;13.9;12.7;;;;;;;10.2;90.65918;956.3403;;;;
2020/05/14 09:24:00;;;;;;;12.9;11.8;;;;;;;10.31;89.26855;956.305;;;;
2020/05/14 09:26:27;;;;;;;14.9;13.6;;;;;;;9.78;91.90527;956.3348;;;;
2020/05/14 09:28:52;;;;;;;15.4;14;;;;;;;9.8;93.59961;956.3521;;;;
2020/05/14 09:31:17;;;;;;;16;14.6;;;;;;;9.83;94.01953;956.4055;;;;
2020/05/14 09:33:43;;;;;;;16.5;15.1;;;;;;;9.96;93.31055;956.3582;;;;
2020/05/14 09:36:08;;;;;;;16.9;15.5;;;;;;;10.06;94.63086;956.3604;;;;
2020/05/14 09:38:42;;;;;;;15.8;14.5;;;;;;;10.08;93.55469;956.4094;;;;
2020/05/14 09:40:58;;;;;;;14.9;13.7;;;;;;;10.03;91.85547;956.4308;;;;
2020/05/14 09:43:23;;;;;;;15.6;14.1;;;;;;;10.25;93.68555;956.3641;;;;
2020/05/14 09:48:19;;;;;;;17.5;15.7;;;;;;;10.09;93.45313;956.3828;;;;
2020/05/14 09:55:42;;;;;;;14.2;12.9;;;;;;;10.19;90.52051;956.3713;;;;
2020/05/14 09:58:03;;;;;;;15;13.3;;;;;;;10.3;91.77441;956.3473;;;;
2020/05/14 10:00:28;;;;;;;15.3;13.7;;;;;;;10.56;89.33203;956.3279;;;;
2020/05/14 10:03:02;;;;;;;13.6;12.2;;;;;;;10.68;88.20703;956.3054;;;;
2020/05/14 10:05:26;;;;;;;13.9;12.4;;;;;;;10.71;88.74121;956.3229;;;;
2020/05/14 10:07:43;;;;;;;14.1;12.5;;;;;;;10.76;87.82031;956.2842;;;;
2020/05/14 10:10:09;;;;;;;16.2;11.7;;;;;;;10.85;86.75391;956.3049;;;;
2020/05/14 10:12:39;;;;;;;11.8;10.6;;;;;;;;;;;;;
2020/05/14 10:18:03;;;;;;;11.2;10.1;;;;;;;;;;;;;
2020/05/14 10:19:57;;;;;;;11.5;10.4;;;;;;;;;;;;;
2020/05/14 10:22:17;;;;;;;12.7;11.1;;;;;;;;;;;;;
2020/05/14 10:25:17;;;;;;;12.6;11.4;;;;;;;;;;;;;
2020/05/14 10:27:08;;;;;;;12.3;11.1;;;;;;;;;;;;;
2020/05/14 10:30:10;;;;;;;13.3;12;;;;;;;;;;;;;
2020/05/14 10:34:33;;;;;;;12.8;11.6;;;;;;;;;;;;;
2020/05/14 10:36:47;;;;;;;12.7;11.5;;;;;;;;;;;;;
2020/05/14 10:39:19;;;;;;;11.9;10.7;;;;;;;;;;;;;
2020/05/14 10:41:30;;;;;;;13.1;11.4;;;;;;;;;;;;;
2020/05/14 10:43:55;;;;;;;12.4;11.2;;;;;;;;;;;;;
2020/05/14 10:46:20;;;;;;;13;11.8;;;;;;;;;;;;;
2020/05/14 10:48:45;;;;;;;12.9;11.7;;;;;;;;;;;;;
2020/05/14 10:51:11;;;;;;;12.9;11.7;;;;;;;;;;;;;
2020/05/14 10:53:36;;;;;;;13.5;12.2;;;;;;;;;;;;;
2020/05/14 10:56:03;;;;;;;11.9;10.8;;;;;;;;;;;;;
2020/05/14 10:58:27;;;;;;;12.6;11.4;;;;;;;;;;;;;
2020/05/14 11:00:52;;;;;;;12.6;11.4;;;;;;;;;;;;;
2020/05/14 11:03:18;;;;;;;11.7;10.6;;;;;;;;;;;;;
2020/05/14 11:05:43;;;;;;;11.1;10;;;;;;;;;;;;;
2020/05/14 11:08:10;;;;;;;9.9;9;;;;;;;;;;;;;
2020/05/14 11:10:36;;;;;;;9.6;8.8;;;;;;;;;;;;;
2020/05/14 11:13:01;;;;;;;10.6;9.5;;;;;;;;;;;;;
2020/05/14 11:15:28;;;;;;;10.8;9.8;;;;;;;;;;;;;
2020/05/14 11:17:53;;;;;;;10.9;9.7;;;;;;;;;;;;;
2020/05/14 11:20:18;;;;;;;11.1;10;;;;;;;;;;;;;
2020/05/14 11:22:43;;;;;;;10.9;9.9;;;;;;;;;;;;;
2020/05/14 11:25:08;;;;;;;10.3;9.4;;;;;;;;;;;;;
2020/05/14 11:27:33;;;;;;;11;9.9;;;;;;;;;;;;;
2020/05/14 11:29:58;;;;;;;9.4;8.5;;;;;;;;;;;;;
2020/05/14 11:32:23;;;;;;;9.6;8.7;;;;;;;;;;;;;
2020/05/14 11:34:48;;;;;;;10.1;9.1;;;;;;;;;;;;;
2020/05/14 11:37:13;;;;;;;10.2;9.3;;;;;;;;;;;;;
2020/05/14 11:39:39;;;;;;;9.8;8.8;;;;;;;;;;;;;
2020/05/14 11:42:04;;;;;;;9.9;9;;;;;;;;;;;;;
2020/05/14 11:44:29;;;;;;;10.3;8.6;;;;;;;;;;;;;
2020/05/14 11:46:55;;;;;;;8.9;8;;;;;;;;;;;;;
2020/05/14 11:49:20;;;;;;;9.7;7.9;;;;;;;;;;;;;
2020/05/14 11:51:46;;;;;;;8;7.3;;;;;;;;;;;;;
2020/05/14 11:54:12;;;;;;;9;7.5;;;;;;;;;;;;;
2020/05/14 11:56:37;;;;;;;8.2;7.4;;;;;;;;;;;;;
2020/05/14 11:59:03;;;;;;;7.7;6.8;;;;;;;;;;;;;
2020/05/14 12:01:28;;;;;;;7.5;6.9;;;;;;;;;;;;;
2020/05/14 12:03:53;;;;;;;7.7;7;;;;;;;;;;;;;
2020/05/14 12:06:19;;;;;;;8.4;7.6;;;;;;;;;;;;;
2020/05/14 12:08:44;;;;;;;8.6;7.9;;;;;;;;;;;;;
2020/05/14 12:11:30;;;;;;;8.6;7.8;;;;;;;;;;;;;
2020/05/14 12:13:41;;;;;;;11;10;;;;;;;;;;;;;
2020/05/14 12:16:06;;;;;;;11;9.9;;;;;;;;;;;;;
2020/05/14 12:18:25;;;;;;;11.7;10.7;;;;;;;;;;;;;
2020/05/14 12:20:50;;;;;;;10;9.1;;;;;;;;;;;;;
2020/05/14 12:23:16;;;;;;;9.6;8.8;;;;;;;;;;;;;
2020/05/14 12:25:41;;;;;;;9.3;8.4;;;;;;;;;;;;;
2020/05/14 12:28:06;;;;;;;9.4;8.5;;;;;;;;;;;;;
2020/05/14 12:30:31;;;;;;;8.9;8.1;;;;;;;;;;;;;
2020/05/14 12:32:56;;;;;;;8.4;7.7;;;;;;;;;;;;;
2020/05/14 12:35:21;;;;;;;9.8;7.9;;;;;;;;;;;;;
2020/05/14 12:37:46;;;;;;;8.5;7.8;;;;;;;;;;;;;
2020/05/14 12:40:11;;;;;;;9.2;8.4;;;;;;;;;;;;;
2020/05/14 12:42:36;;;;;;;10;9;;;;;;;;;;;;;
2020/05/14 12:45:01;;;;;;;9.4;8.6;;;;;;;;;;;;;
2020/05/14 12:47:27;;;;;;;9.9;9;;;;;;;;;;;;;
2020/05/14 12:49:52;;;;;;;9.7;8.9;;;;;;;;;;;;;
2020/05/14 12:52:17;;;;;;;9.6;8.7;;;;;;;;;;;;;
2020/05/14 12:54:42;;;;;;;9.8;8.9;;;;;;;;;;;;;
2020/05/14 12:57:07;;;;;;;9.1;8.3;;;;;;;;;;;;;
2020/05/14 12:59:32;;;;;;;9.6;8.7;;;;;;;;;;;;;
2020/05/14 13:01:57;;;;;;;9.6;8.7;;;;;;;;;;;;;
2020/05/14 13:04:22;;;;;;;9.3;8.4;;;;;;;;;;;;;
2020/05/14 13:06:48;;;;;;;9.7;8.8;;;;;;;;;;;;;
2020/05/14 13:09:14;;;;;;;10.6;9.6;;;;;;;;;;;;;
2020/05/14 13:12:39;;;;;;;9.4;8.5;;;;;;;;;;;;;
2020/05/14 13:19:37;;;;;;;9.3;8.5;;;;;;;;;;;;;
2020/05/14 13:21:25;;;;;;;9.1;8.3;;;;;;;;;;;;;
2020/05/14 13:23:46;;;;;;;9.9;8.9;;;;;;;;;;;;;
2020/05/14 13:26:11;;;;;;;8.9;8.1;;;;;;;;;;;;;
2020/05/14 13:28:36;;;;;;;9.3;8.4;;;;;;;;;;;;;
2020/05/14 13:31:02;;;;;;;9.3;8.4;;;;;;;;;;;;;
2020/05/14 13:33:27;;;;;;;9.5;8.7;;;;;;;;;;;;;
2020/05/14 13:35:54;;;;;;;8.6;7.8;;;;;;;;;;;;;
2020/05/14 13:38:19;;;;;;;7.8;7;;;;;;;;;;;;;
2020/05/14 13:40:45;;;;;;;8.1;7.3;;;;;;;;;;;;;
2020/05/14 13:43:10;;;;;;;8.7;7.9;;;;;;;;;;;;;
2020/05/14 13:45:37;;;;;;;8.8;7.9;;;;;;;;;;;;;
2020/05/14 13:48:02;;;;;;;11.2;9.3;;;;;;;;;;;;;
2020/05/14 13:50:27;;;;;;;10.5;9.4;;;;;;;;;;;;;
2020/05/14 13:52:52;;;;;;;9.9;8.9;;;;;;;;;;;;;
2020/05/14 13:55:17;;;;;;;8.9;8.1;;;;;;;;;;;;;
2020/05/14 13:57:42;;;;;;;9.5;8.6;;;;;;;;;;;;;
2020/05/14 14:00:07;;;;;;;8.2;7.5;;;;;;;;;;;;;
2020/05/14 14:02:32;;;;;;;8.3;7.5;;;;;;;;;;;;;
2020/05/14 14:04:58;;;;;;;7.7;7;;;;;;;;;;;;;
2020/05/14 14:07:26;;;;;;;8.4;7.6;;;;;;;;;;;;;
2020/05/14 14:10:35;;;;;;;8;7.3;;;;;;;;;;;;;
2020/05/14 14:12:21;;;;;;;8.1;7.3;;;;;;;;;;;;;
2020/05/14 14:14:40;;;;;;;7.9;7.2;;;;;;;;;;;;;
2020/05/14 14:17:10;;;;;;;9.5;7.1;;;;;;;;;;;;;
2020/05/14 14:19:30;;;;;;;7;6.4;;;;;;;;;;;;;
2020/05/14 14:21:56;;;;;;;6;5.4;;;;;;;;;;;;;
2020/05/14 14:24:21;;;;;;;6.7;6;;;;;;;;;;;;;
2020/05/14 14:26:46;;;;;;;6.6;5.9;;;;;;;;;;;;;
2020/05/14 14:29:11;;;;;;;6.5;5.9;;;;;;;;;;;;;
2020/05/14 14:31:37;;;;;;;6.8;6.3;;;;;;;;;;;;;
2020/05/14 14:34:02;;;;;;;7.1;6.4;;;;;;;;;;;;;
2020/05/14 14:36:27;;;;;;;6.7;6.1;;;;;;;;;;;;;
2020/05/14 14:38:52;;;;;;;6.8;6.2;;;;;;;;;;;;;
2020/05/14 14:41:17;;;;;;;7;6.4;;;;;;;;;;;;;
2020/05/14 14:43:43;;;;;;;6.5;5.9;;;;;;;;;;;;;
2020/05/14 14:46:08;;;;;;;7.4;6.6;;;;;;;;;;;;;
2020/05/14 14:48:34;;;;;;;7;6.1;;;;;;;;;;;;;
2020/05/14 14:50:59;;;;;;;7;6.2;;;;;;;;;;;;;
2020/05/14 14:53:25;;;;;;;6.6;6;;;;;;;;;;;;;
2020/05/14 14:55:50;;;;;;;6.1;5.5;;;;;;;;;;;;;
2020/05/14 14:58:16;;;;;;;5.9;5.4;;;;;;;;;;;;;
2020/05/14 15:00:41;;;;;;;6.1;5.5;;;;;;;;;;;;;
2020/05/14 15:03:06;;;;;;;5.1;4.6;;;;;;;;;;;;;
2020/05/14 15:05:31;;;;;;;5.3;4.8;;;;;;;;;;;;;
2020/05/14 15:07:57;;;;;;;5.1;4.7;;;;;;;;;;;;;
2020/05/14 15:10:22;;;;;;;5.3;4.8;;;;;;;;;;;;;
2020/05/14 15:12:47;;;;;;;5.4;4.9;;;;;;;;;;;;;
2020/05/14 15:15:12;;;;;;;5;4.5;;;;;;;;;;;;;
2020/05/14 15:17:37;;;;;;;4.8;4.4;;;;;;;;;;;;;
2020/05/14 15:20:03;;;;;;;4.9;4;;;;;;;;;;;;;
2020/05/14 15:22:29;;;;;;;4.2;3.9;;;;;;;;;;;;;
2020/05/14 15:24:54;;;;;;;4;3.7;;;;;;;;;;;;;
2020/05/14 15:27:19;;;;;;;4.5;4.1;;;;;;;;;;;;;
2020/05/14 15:29:44;;;;;;;4.3;3.9;;;;;;;;;;;;;
2020/05/14 15:32:10;;;;;;;5.6;4.2;;;;;;;;;;;;;
2020/05/14 15:34:34;;;;;;;4.6;4.2;;;;;;;;;;;;;
2020/05/14 15:36:59;;;;;;;4.6;4.2;;;;;;;;;;;;;
2020/05/14 15:39:24;;;;;;;3.4;3.1;;;;;;;;;;;;;
2020/05/14 15:41:53;;;;;;;2.9;2.5;;;;;;;;;;;;;
2020/05/14 15:46:55;;;;;;;3.5;2.7;;;;;;;;;;;;;
2020/05/14 15:49:29;;;;;;;2.7;2.1;;;;;;;;;;;;;
2020/05/14 15:51:40;;;;;;;3.8;2.6;;;;;;;;;;;;;
2020/05/14 15:53:55;;;;;;;2.9;2.6;;;;;;;;;;;;;
2020/05/14 15:56:25;;;;;;;3.8;2.8;;;;;;;;;;;;;
2020/05/14 16:01:20;;;;;;;3.7;2.8;;;;;;;;;;;;;
2020/05/14 16:33:01;;;;;;;3.4;3;;;;;;;;;;;;;
2020/05/14 16:40:17;;;;;;;4.1;3.7;;;;;;;;;;;;;
2020/05/14 16:42:24;;;;;;;4.8;4.4;;;;;;;;;;;;;
2020/05/14 16:44:50;;;;;;;4.3;3.9;;;;;;;;;;;;;
2020/05/14 16:47:08;;;;;;;3.7;3.3;;;;;;;;;;;;;
2020/05/14 16:49:33;;;;;;;3.4;3.1;;;;;;;;;;;;;
2020/05/14 16:51:58;;;;;;;3.3;3;;;;;;;;;;;;;
2020/05/14 16:54:24;;;;;;;3.4;3.1;;;;;;;;;;;;;
2020/05/14 16:56:49;;;;;;;3.3;3;;;;;;;;;;;;;
2020/05/14 16:59:15;;;;;;;3.9;3.5;;;;;;;;;;;;;
2020/05/14 17:01:43;;;;;;;4.4;4;;;;;;;;;;;;;
2020/05/14 17:04:05;;;;;;;3.7;3.4;;;;;;;;;;;;;
2020/05/14 17:06:31;;;;;;;3.6;3.2;;;;;;;;;;;;;
2020/05/14 17:08:55;;;;;;;3.3;3;;;;;;;;;;;;;
2020/05/14 17:11:20;;;;;;;4.2;3.1;;;;;;;;;;;;;
2020/05/14 17:13:45;;;;;;;3.6;3.1;;;;;;;;;;;;;
2020/05/14 17:16:10;;;;;;;5.5;4.4;;;;;;;;;;;;;
2020/05/14 17:18:35;;;;;;;3.2;2.9;;;;;;;;;;;;;
2020/05/14 17:21:01;;;;;;;11.3;7.7;;;;;;;;;;;;;
2020/05/14 17:23:26;;;;;;;7.6;6.2;;;;;;;;;;;;;
2020/05/14 17:25:51;;;;;;;9.7;7.8;;;;;;;;;;;;;
2020/05/14 17:28:16;;;;;;;5.3;4.7;;;;;;;;;;;;;
2020/05/14 17:30:41;;;;;;;6.9;6.2;;;;;;;;;;;;;
2020/05/14 17:33:06;;;;;;;4.9;4.4;;;;;;;;;;;;;
2020/05/14 17:35:31;;;;;;;4.7;3.7;;;;;;;;;;;;;
2020/05/14 17:37:57;;;;;;;4.6;3.6;;;;;;;;;;;;;
2020/05/14 17:40:22;;;;;;;5.1;4.2;;;;;;;;;;;;;
2020/05/14 17:42:48;;;;;;;4.4;3.3;;;;;;;;;;;;;
2020/05/14 17:45:13;;;;;;;4.1;3.7;;;;;;;;;;;;;
2020/05/14 17:47:38;;;;;;;4.7;3.8;;;;;;;;;;;;;
2020/05/14 17:50:03;;;;;;;4.4;4;;;;;;;;;;;;;
2020/05/14 17:52:28;;;;;;;5.2;4.7;;;;;;;;;;;;;
2020/05/14 17:54:56;;;;;;;5.4;4.3;;;;;;;;;;;;;
2020/05/14 17:57:21;;;;;;;6.6;4;;;;;;;;;;;;;
2020/05/14 17:59:58;;;;;;;5;4.5;;;;;;;;;;;;;
2020/05/14 18:02:39;;;;;;;4.4;4;;;;;;;;;;;;;
2020/05/14 18:04:51;;;;;;;5.4;4.7;;;;;;;;;;;;;
2020/05/14 18:07:12;;;;;;;5;4.5;;;;;;;;;;;;;
2020/05/14 18:09:36;;;;;;;5.8;4.9;;;;;;;;;;;;;
2020/05/14 18:12:01;;;;;;;5.5;4.9;;;;;;;;;;;;;
2020/05/14 18:14:26;;;;;;;5.1;4.6;;;;;;;;;;;;;
2020/05/14 18:16:53;;;;;;;5.9;5.2;;;;;;;;;;;;;
2020/05/14 18:19:18;;;;;;;5.6;4.8;;;;;;;;;;;;;
2020/05/14 18:21:46;;;;;;;7.3;5.4;;;;;;;;;;;;;
2020/05/14 18:24:19;;;;;;;5.6;4.9;;;;;;;;;;;;;
2020/05/14 18:26:44;;;;;;;5.2;4.3;;;;;;;;;;;;;
2020/05/14 18:29:10;;;;;;;4.7;4.3;;;;;;;;;;;;;
2020/05/14 18:31:35;;;;;;;5;4.5;;;;;;;;;;;;;
2020/05/14 18:34:03;;;;;;;5.2;4.3;;;;;;;;;;;;;
2020/05/14 18:36:34;;;;;;;6.3;4.7;;;;;;;;;;;;;
2020/05/14 18:38:55;;;;;;;5.4;4.6;;;;;;;;;;;;;
2020/05/14 18:41:31;;;;;;;5.3;4.3;;;;;;;;;;;;;
2020/05/14 18:43:50;;;;;;;4.4;4;;;;;;;;;;;;;
2020/05/14 18:46:10;;;;;;;4.2;3.8;;;;;;;;;;;;;
2020/05/14 18:48:52;;;;;;;4.9;4.4;;;;;;;;;;;;;
2020/05/14 18:51:18;;;;;;;4.3;3.9;;;;;;;;;;;;;
2020/05/14 18:53:48;;;;;;;4.4;3.9;;;;;;;;;;;;;
2020/05/14 18:56:21;;;;;;;5;4.3;;;;;;;;;;;;;
2020/05/14 18:58:50;;;;;;;5.3;4;;;;;;;;;;;;;
2020/05/14 19:01:21;;;;;;;4.5;4.1;;;;;;;;;;;;;
2020/05/14 19:03:43;;;;;;;4.7;4.3;;;;;;;;;;;;;
2020/05/14 19:06:06;;;;;;;4.9;4.3;;;;;;;;;;;;;
2020/05/14 19:08:33;;;;;;;4.9;4;;;;;;;;;;;;;
2020/05/14 19:16:00;;;;;;;6;4.7;;;;;;;;;;;;;
2020/05/14 19:20:45;;;;;;;5.2;4.5;;;;;;;;;;;;;
2020/05/14 19:23:22;;;;;;;5.3;4.8;;;;;;;;;;;;;
2020/05/14 19:25:45;;;;;;;5.6;4.5;;;;;;;;;;;;;
2020/05/14 19:32:54;;;;;;;4.5;4.1;;;;;;;;;;;;;
2020/05/14 19:35:14;;;;;;;5.1;4.4;;;;;;;;;;;;;
2020/05/14 19:37:38;;;;;;;5.5;4.2;;;;;;;;;;;;;
2020/05/14 19:47:40;;;;;;;4.1;3.6;;;;;;;;;;;;;
2020/05/14 19:50:00;;;;;;;4.2;3.8;;;;;;;;;;;;;
2020/05/14 20:00:16;;;;;;;4.3;3.9;;;;;;;;;;;;;
2020/05/14 20:02:17;;;;;;;3.7;3.3;;;;;;;;;;;;;
2020/05/14 20:04:35;;;;;;;4.5;3.6;;;;;;;;;;;;;
2020/05/14 20:09:25;;;;;;;3.9;3.5;;;;;;;;;;;;;
2020/05/14 20:11:52;;;;;;;4.5;3.9;;;;;;;;;;;;;
2020/05/14 20:15:01;;;;;;;3.7;3.4;;;;;;;;;;;;;
2020/05/14 20:17:01;;;;;;;4.1;3.3;;;;;;;;;;;;;
2020/05/14 20:21:47;;;;;;;4.2;3.4;;;;;;;;;;;;;
2020/05/14 20:31:46;;;;;;;3.9;3.5;;;;;;;;;;;;;
2020/05/14 20:38:55;;;;;;;4;3.6;;;;;;;;;;;;;
2020/05/14 20:44:50;;;;;;;3.8;3.5;;;;;;;;;;;;;
2020/05/14 20:46:24;;;;;;;4;3.6;;;;;;;;;;;;;
2020/05/14 20:48:50;;;;;;;3.9;3.5;;;;;;;;;;;;;
2020/05/14 20:51:30;;;;;;;3.3;3;;;;;;;;;;;;;
2020/05/14 20:53:42;;;;;;;4.3;3.5;;;;;;;;;;;;;
2020/05/14 20:56:58;;;;;;;3.4;3.1;;;;;;;;;;;;;
2020/05/14 21:06:04;;;;;;;3.6;3.3;;;;;;;;;;;;;
2020/05/14 21:08:38;;;;;;;4.2;3.3;;;;;;;;;;;;;
2020/05/14 21:11:08;;;;;;;3.6;3.1;;;;;;;;;;;;;
2020/05/14 21:15:53;;;;;;;3.8;3.4;;;;;;;;;;;;;
2020/05/14 21:18:28;;;;;;;3.8;3.4;;;;;;;;;;;;;
2020/05/14 21:20:43;;;;;;;4;3.6;;;;;;;;;;;;;
2020/05/14 21:23:48;;;;;;;3.9;3.5;;;;;;;;;;;;;
2020/05/14 21:33:12;;;;;;;5.2;4.4;;;;;;;;;;;;;
2020/05/14 21:37:47;;;;;;;4.8;3.7;;;;;;;;;;;;;